Time;durP1;ratioP1;P1;durP2;ratioP2;P2;SDS_P1;SDS_P2;PMS_P1;PMS_P2;Temp;Humidity;BMP_temperature;BMP_pressure;BME280_temperature;BME280_humidity;BME280_pressure;Samples;Min_cycle;Max_cycle;Signal;HPM_P1;HPM_P2
2022/12/17 13:08:04;;;;;;;49.33;21.63;;;;;;;;;;5005287;28;20545;-69
2022/12/17 13:10:31;;;;;;;47.60;21.80;;;;;;;;;;4983071;28;21017;-72
2022/12/17 13:12:59;;;;;;;54.60;23.47;;;;;;;;;;5008648;28;20423;-69
2022/12/17 13:15:30;;;;;;;51.50;21.80;;;;;;;;;;4967261;28;20470;-75
2022/12/17 13:18:34;;;;;;;51.33;21.93;;;;;;;;;;5009773;28;20423;-71
2022/12/17 13:21:02;;;;;;;48.10;20.97;;;;;;;;;;4962567;28;20441;-70
2022/12/17 13:23:32;;;;;;;46.67;20.43;;;;;;;;;;5000059;28;20443;-70
2022/12/17 13:26:03;;;;;;;51.20;21.43;;;;;;;;;;4975645;28;20979;-70
2022/12/17 13:28:29;;;;;;;53.87;21.03;;;;;;;;;;5003085;28;20992;-70
2022/12/17 13:31:00;;;;;;;45.67;20.10;;;;;;;;;;5009005;28;20964;-70
2022/12/17 13:33:37;;;;;;;47.87;20.27;;;;;;;;;;4975472;28;20958;-69
2022/12/17 13:36:13;;;;;;;48.03;20.67;;;;;;;;;;4999045;28;20467;-69
2022/12/17 13:38:59;;;;;;;52.20;20.97;;;;;;;;;;4991416;28;20439;-69
2022/12/17 13:41:27;;;;;;;47.33;22.60;;;;;;;;;;5008647;28;20446;-69
2022/12/17 13:44:12;;;;;;;59.47;24.43;;;;;;;;;;5009355;28;20438;-69
2022/12/17 13:46:42;;;;;;;54.63;23.33;;;;;;;;;;4998588;28;20522;-69
2022/12/17 13:49:17;;;;;;;58.33;23.40;;;;;;;;;;5009222;28;20446;-69
2022/12/17 13:51:44;;;;;;;55.90;24.63;;;;;;;;;;4991194;28;20571;-74
2022/12/17 13:54:18;;;;;;;58.33;25.57;;;;;;;;;;5007432;28;20450;-73
2022/12/17 13:56:45;;;;;;;72.13;28.30;;;;;;;;;;5008356;28;20486;-73
2022/12/17 13:59:19;;;;;;;52.50;23.97;;;;;;;;;;4991277;28;20919;-73
2022/12/17 14:01:49;;;;;;;55.07;23.80;;;;;;;;;;5007067;28;20438;-69
2022/12/17 14:04:20;;;;;;;48.53;22.47;;;;;;;;;;4992284;28;20435;-73
2022/12/17 14:06:47;;;;;;;48.90;22.17;;;;;;;;;;5009958;28;20451;-72
2022/12/17 14:09:16;;;;;;;53.97;22.73;;;;;;;;;;4992278;28;20439;-71
2022/12/17 14:14:30;;;;;;;45.27;21.33;;;;;;;;;;4997029;28;20477;-72
2022/12/17 14:16:57;;;;;;;54.07;21.70;;;;;;;;;;5009494;28;20509;-72
2022/12/17 14:19:26;;;;;;;42.03;19.73;;;;;;;;;;4992413;28;20442;-71
2022/12/17 14:21:53;;;;;;;47.37;20.23;;;;;;;;;;4992516;28;20435;-71
2022/12/17 14:24:25;;;;;;;50.13;21.47;;;;;;;;;;4992829;28;20481;-71
2022/12/17 14:26:53;;;;;;;49.73;21.97;;;;;;;;;;4993484;28;20474;-72
2022/12/17 14:29:24;;;;;;;48.80;20.67;;;;;;;;;;4990608;28;20435;-69
2022/12/17 14:31:52;;;;;;;46.07;21.37;;;;;;;;;;5008981;28;20470;-68
2022/12/17 14:34:19;;;;;;;50.20;22.80;;;;;;;;;;5014431;28;20485;-69
2022/12/17 14:36:46;;;;;;;55.40;23.10;;;;;;;;;;4996481;28;20850;-69
2022/12/17 14:39:23;;;;;;;51.93;24.30;;;;;;;;;;5014352;28;20980;-68
2022/12/17 14:44:37;;;;;;;56.03;25.47;;;;;;;;;;4993348;28;20435;-69
2022/12/17 14:47:16;;;;;;;68.43;31.17;;;;;;;;;;5010877;28;20469;-69
2022/12/17 14:49:51;;;;;;;62.03;29.40;;;;;;;;;;4985120;28;20444;-70
2022/12/17 14:52:26;;;;;;;58.63;26.77;;;;;;;;;;4994159;28;20462;-69
2022/12/17 14:54:52;;;;;;;62.33;27.60;;;;;;;;;;4994285;28;20446;-70
2022/12/17 14:57:20;;;;;;;64.93;29.03;;;;;;;;;;4994406;28;20912;-69
2022/12/17 14:59:46;;;;;;;77.20;34.10;;;;;;;;;;4993956;28;20435;-69
2022/12/17 15:02:13;;;;;;;69.07;32.00;;;;;;;;;;4989872;28;20442;-71
2022/12/17 15:04:40;;;;;;;78.63;33.53;;;;;;;;;;5012070;28;20438;-69
2022/12/17 15:07:09;;;;;;;77.90;34.20;;;;;;;;;;5011994;28;20441;-71
2022/12/17 15:09:43;;;;;;;78.53;35.23;;;;;;;;;;4994999;28;20458;-69
2022/12/17 15:12:09;;;;;;;75.87;34.47;;;;;;;;;;5012030;28;20459;-70
2022/12/17 15:14:36;;;;;;;73.73;30.07;;;;;;;;;;4985901;28;21028;-70
2022/12/17 15:17:04;;;;;;;65.40;28.30;;;;;;;;;;4990930;28;21067;-69
2022/12/17 15:19:32;;;;;;;43.43;18.93;;;;;;;;;;5011730;28;20455;-68
2022/12/17 15:21:59;;;;;;;41.00;18.57;;;;;;;;;;5007862;28;20497;-68
2022/12/17 15:24:26;;;;;;;42.43;18.37;;;;;;;;;;5002599;28;20438;-68
2022/12/17 15:26:53;;;;;;;45.77;19.63;;;;;;;;;;5012165;28;20434;-69
2022/12/17 15:29:23;;;;;;;48.07;21.27;;;;;;;;;;5009995;28;20435;-68
2022/12/17 15:31:49;;;;;;;41.60;18.43;;;;;;;;;;5011351;28;20427;-72
2022/12/17 15:34:16;;;;;;;47.67;21.37;;;;;;;;;;5010976;28;20447;-70
2022/12/17 15:36:43;;;;;;;54.30;23.33;;;;;;;;;;5009133;28;21043;-71
2022/12/17 15:39:09;;;;;;;52.27;20.90;;;;;;;;;;5007144;28;20458;-72
2022/12/17 15:44:22;;;;;;;52.20;21.37;;;;;;;;;;5007813;28;20434;-72
2022/12/17 15:46:49;;;;;;;45.53;20.30;;;;;;;;;;4993125;28;20443;-72
2022/12/17 15:49:15;;;;;;;59.70;27.97;;;;;;;;;;4992821;28;20451;-71
2022/12/17 15:51:43;;;;;;;56.80;23.03;;;;;;;;;;5000894;28;20483;-71
2022/12/17 15:54:09;;;;;;;53.03;21.83;;;;;;;;;;4980703;28;20993;-71
2022/12/17 15:56:36;;;;;;;47.37;19.93;;;;;;;;;;4993222;28;20494;-71
2022/12/17 15:59:03;;;;;;;44.17;17.50;;;;;;;;;;4979528;28;20529;-71
2022/12/17 16:01:30;;;;;;;45.77;18.90;;;;;;;;;;5009875;28;20431;-71
2022/12/17 16:03:57;;;;;;;42.20;18.43;;;;;;;;;;4987439;28;20454;-71
2022/12/17 16:06:25;;;;;;;42.07;19.00;;;;;;;;;;5008015;28;20461;-71
2022/12/17 16:08:51;;;;;;;47.13;20.47;;;;;;;;;;4973658;28;20967;-71
2022/12/17 16:11:18;;;;;;;49.90;19.67;;;;;;;;;;4989047;28;20435;-71
2022/12/17 16:13:45;;;;;;;43.40;18.37;;;;;;;;;;4988887;28;20444;-71
2022/12/17 16:16:12;;;;;;;50.60;21.90;;;;;;;;;;4989520;28;20860;-71
2022/12/17 16:18:39;;;;;;;48.80;20.33;;;;;;;;;;4968132;28;20537;-71
2022/12/17 16:21:07;;;;;;;54.03;21.00;;;;;;;;;;4988732;28;20468;-71
2022/12/17 16:23:34;;;;;;;57.17;22.23;;;;;;;;;;4964834;28;20799;-71
2022/12/17 16:26:01;;;;;;;54.23;21.13;;;;;;;;;;4988816;28;21410;-71
2022/12/17 16:28:28;;;;;;;46.30;20.03;;;;;;;;;;4954543;28;20968;-71
2022/12/17 16:30:59;;;;;;;68.67;27.20;;;;;;;;;;4971092;28;20443;-72
2022/12/17 16:33:25;;;;;;;48.00;20.80;;;;;;;;;;4989671;28;20485;-71
2022/12/17 16:36:00;;;;;;;63.20;24.90;;;;;;;;;;4972525;28;20438;-71
2022/12/17 16:38:26;;;;;;;58.70;24.97;;;;;;;;;;4986688;28;20740;-72
2022/12/17 16:40:56;;;;;;;68.43;25.33;;;;;;;;;;4997773;28;20457;-72
2022/12/17 16:43:23;;;;;;;58.63;24.33;;;;;;;;;;4992344;28;20453;-71
2022/12/17 16:45:51;;;;;;;56.33;22.87;;;;;;;;;;4971471;28;20439;-71
2022/12/17 16:48:18;;;;;;;55.70;22.37;;;;;;;;;;4970734;28;20447;-71
2022/12/17 16:50:46;;;;;;;56.30;22.77;;;;;;;;;;4971353;28;20440;-72
2022/12/17 16:53:13;;;;;;;71.40;27.33;;;;;;;;;;4985060;28;21178;-71
2022/12/17 16:55:40;;;;;;;73.90;29.33;;;;;;;;;;4998241;28;20446;-70
2022/12/17 16:58:07;;;;;;;68.50;27.33;;;;;;;;;;4986317;28;20502;-71
2022/12/17 17:00:34;;;;;;;72.77;29.20;;;;;;;;;;4997956;28;20890;-68
2022/12/17 17:03:01;;;;;;;79.83;29.73;;;;;;;;;;4984494;28;20443;-72
2022/12/17 17:05:32;;;;;;;63.17;27.23;;;;;;;;;;5007655;28;20445;-76
2022/12/17 17:08:00;;;;;;;55.03;23.93;;;;;;;;;;5008340;28;20458;-76
2022/12/17 17:10:28;;;;;;;64.97;27.23;;;;;;;;;;4989793;28;20449;-70
2022/12/17 17:12:56;;;;;;;68.50;27.60;;;;;;;;;;5002626;28;20446;-66
2022/12/17 17:15:23;;;;;;;70.53;27.80;;;;;;;;;;4971995;28;20550;-66
2022/12/17 17:17:50;;;;;;;79.23;31.23;;;;;;;;;;5007003;28;20485;-71
2022/12/17 17:20:20;;;;;;;69.70;30.27;;;;;;;;;;5006024;28;20557;-68
2022/12/17 17:22:47;;;;;;;63.73;26.77;;;;;;;;;;5004909;28;20462;-71
2022/12/17 17:25:15;;;;;;;63.00;27.00;;;;;;;;;;5006842;28;20441;-68
2022/12/17 17:27:42;;;;;;;57.00;25.97;;;;;;;;;;5005779;28;20546;-73
2022/12/17 17:30:09;;;;;;;74.53;31.67;;;;;;;;;;5006280;28;20437;-72
2022/12/17 17:32:36;;;;;;;78.40;32.37;;;;;;;;;;5014244;28;20439;-71
2022/12/17 17:35:03;;;;;;;74.03;28.93;;;;;;;;;;5029336;28;20937;-72
2022/12/17 17:37:30;;;;;;;73.27;28.90;;;;;;;;;;4997561;28;20559;-68
2022/12/17 17:39:56;;;;;;;98.30;36.40;;;;;;;;;;4970164;28;20495;-68
2022/12/17 17:42:24;;;;;;;95.60;34.97;;;;;;;;;;5003641;28;20468;-70
2022/12/17 17:44:51;;;;;;;140.87;52.83;;;;;;;;;;5005933;28;20476;-66
2022/12/17 17:47:17;;;;;;;128.37;49.87;;;;;;;;;;4987628;28;20449;-70
2022/12/17 17:49:44;;;;;;;108.07;39.63;;;;;;;;;;4971174;28;20431;-70
2022/12/17 17:52:11;;;;;;;79.67;32.70;;;;;;;;;;4988958;28;20468;-71
2022/12/17 17:54:39;;;;;;;81.70;31.17;;;;;;;;;;4986456;28;20442;-72
2022/12/17 17:57:07;;;;;;;75.23;29.77;;;;;;;;;;4986354;28;20502;-72
2022/12/17 17:59:33;;;;;;;70.00;28.37;;;;;;;;;;4964015;28;20460;-71
2022/12/17 18:02:01;;;;;;;73.63;29.10;;;;;;;;;;4990728;28;20865;-69
2022/12/17 18:04:28;;;;;;;65.37;29.00;;;;;;;;;;4990479;28;20447;-69
2022/12/17 18:06:55;;;;;;;64.17;28.07;;;;;;;;;;4988616;28;20465;-69
2022/12/17 18:09:42;;;;;;;64.40;27.60;;;;;;;;;;4991707;28;20435;-70
2022/12/17 18:14:54;;;;;;;74.80;30.10;;;;;;;;;;5012511;28;20488;-69
2022/12/17 18:17:41;;;;;;;68.43;28.30;;;;;;;;;;5007353;28;20768;-69
2022/12/17 18:20:10;;;;;;;73.20;29.77;;;;;;;;;;5009333;28;20434;-69
2022/12/17 18:22:37;;;;;;;73.53;30.77;;;;;;;;;;5012210;28;21056;-69
2022/12/17 18:25:04;;;;;;;73.63;31.37;;;;;;;;;;5006312;28;20443;-69
2022/12/17 18:27:31;;;;;;;73.60;31.93;;;;;;;;;;5009371;28;20986;-69
2022/12/17 18:29:58;;;;;;;76.07;32.50;;;;;;;;;;4989932;28;20456;-69
2022/12/17 18:32:25;;;;;;;73.70;32.07;;;;;;;;;;5018103;28;20447;-69
2022/12/17 18:34:52;;;;;;;81.27;31.53;;;;;;;;;;5012286;28;20434;-69
2022/12/17 18:37:19;;;;;;;105.03;43.87;;;;;;;;;;5012091;28;20463;-69
2022/12/17 18:39:46;;;;;;;101.53;40.67;;;;;;;;;;5010126;28;20799;-69
2022/12/17 18:44:58;;;;;;;130.13;50.73;;;;;;;;;;5012343;28;20440;-69
2022/12/17 18:47:27;;;;;;;142.97;51.47;;;;;;;;;;5004304;28;20557;-69
2022/12/17 18:49:54;;;;;;;125.53;48.77;;;;;;;;;;5009766;28;20442;-69
2022/12/17 18:52:22;;;;;;;121.67;47.80;;;;;;;;;;4991536;28;20471;-66
2022/12/17 18:54:49;;;;;;;116.70;48.73;;;;;;;;;;4988941;28;20466;-69
2022/12/17 18:57:16;;;;;;;101.90;44.43;;;;;;;;;;5007245;28;20522;-70
2022/12/17 18:59:43;;;;;;;125.40;51.23;;;;;;;;;;4997084;28;20472;-67
2022/12/17 19:02:10;;;;;;;112.53;47.53;;;;;;;;;;5006025;28;20927;-70
2022/12/17 19:04:42;;;;;;;124.93;47.30;;;;;;;;;;4969646;28;20452;-69
2022/12/17 19:07:09;;;;;;;121.80;49.83;;;;;;;;;;4999361;28;20432;-70
2022/12/17 19:09:38;;;;;;;115.33;47.00;;;;;;;;;;5007830;28;20539;-70
2022/12/17 19:12:06;;;;;;;113.30;47.83;;;;;;;;;;5013747;28;20524;-69
2022/12/17 19:14:33;;;;;;;115.13;48.30;;;;;;;;;;4973737;28;20452;-70
2022/12/17 19:17:02;;;;;;;116.80;48.80;;;;;;;;;;4990658;28;20474;-69
2022/12/17 19:19:29;;;;;;;110.40;46.83;;;;;;;;;;4993157;28;20471;-69
2022/12/17 19:21:58;;;;;;;110.23;47.13;;;;;;;;;;5011893;28;20445;-69
2022/12/17 19:24:26;;;;;;;97.83;38.67;;;;;;;;;;4997851;28;20439;-70
2022/12/17 19:26:53;;;;;;;93.20;37.27;;;;;;;;;;5010973;28;20941;-70
2022/12/17 19:29:21;;;;;;;82.50;34.57;;;;;;;;;;4994401;28;20537;-70
2022/12/17 19:31:48;;;;;;;70.50;28.47;;;;;;;;;;5004258;28;20438;-70
2022/12/17 19:34:16;;;;;;;62.53;26.93;;;;;;;;;;5013642;28;20957;-70
2022/12/17 19:36:44;;;;;;;56.80;25.03;;;;;;;;;;5011951;28;20467;-70
2022/12/17 19:39:12;;;;;;;55.37;23.17;;;;;;;;;;4991020;28;20482;-70
2022/12/17 19:41:40;;;;;;;52.23;21.93;;;;;;;;;;4991126;28;20829;-70
2022/12/17 19:44:07;;;;;;;56.73;23.20;;;;;;;;;;5007214;28;20441;-70
2022/12/17 19:46:34;;;;;;;49.63;22.10;;;;;;;;;;4990026;28;20531;-70
2022/12/17 19:49:01;;;;;;;54.17;22.43;;;;;;;;;;5006721;28;20465;-70
2022/12/17 19:51:28;;;;;;;49.27;20.67;;;;;;;;;;5009719;28;20493;-69
2022/12/17 19:53:55;;;;;;;49.17;19.90;;;;;;;;;;4990373;28;21036;-70
2022/12/17 19:56:26;;;;;;;50.17;20.53;;;;;;;;;;4992915;28;20436;-70
2022/12/17 19:58:53;;;;;;;49.50;19.87;;;;;;;;;;5010307;28;20513;-70
2022/12/17 20:01:21;;;;;;;43.00;19.70;;;;;;;;;;4975768;28;20436;-70
2022/12/17 20:03:48;;;;;;;52.20;19.47;;;;;;;;;;4989501;28;20799;-70
2022/12/17 20:06:16;;;;;;;73.50;26.67;;;;;;;;;;4991562;28;20434;-70
2022/12/17 20:08:43;;;;;;;175.63;62.23;;;;;;;;;;4977249;28;20463;-70
2022/12/17 20:14:16;;;;;;;92.43;36.33;;;;;;;;;;4977230;28;20505;-70
2022/12/17 20:16:50;;;;;;;91.53;36.50;;;;;;;;;;4993036;28;20467;-70
2022/12/17 20:19:18;;;;;;;102.47;40.43;;;;;;;;;;4976301;28;20837;-70
2022/12/17 20:21:45;;;;;;;122.93;50.23;;;;;;;;;;4989878;28;20439;-70
2022/12/17 20:24:12;;;;;;;100.80;40.40;;;;;;;;;;4990580;28;20432;-70
2022/12/17 20:26:39;;;;;;;104.13;39.07;;;;;;;;;;4990194;28;20796;-70
2022/12/17 20:29:08;;;;;;;87.60;34.30;;;;;;;;;;5006687;28;20565;-70
2022/12/17 20:31:36;;;;;;;85.70;34.30;;;;;;;;;;5010622;28;20438;-70
2022/12/17 20:34:04;;;;;;;74.33;31.30;;;;;;;;;;4989960;28;20531;-70
2022/12/17 20:36:30;;;;;;;73.73;31.57;;;;;;;;;;4969629;28;20911;-70
2022/12/17 20:38:57;;;;;;;75.33;30.83;;;;;;;;;;4988439;28;20484;-70
2022/12/17 20:41:25;;;;;;;74.13;29.97;;;;;;;;;;4992026;28;20474;-70
2022/12/17 20:43:52;;;;;;;68.67;27.73;;;;;;;;;;4988975;28;20443;-70
2022/12/17 20:46:22;;;;;;;60.67;25.03;;;;;;;;;;4991510;28;20523;-70
2022/12/17 20:48:59;;;;;;;52.60;23.30;;;;;;;;;;5009162;28;20438;-70
2022/12/17 20:51:26;;;;;;;61.87;24.97;;;;;;;;;;4992018;28;20469;-70
2022/12/17 20:53:53;;;;;;;55.70;22.30;;;;;;;;;;5009488;28;20453;-70
2022/12/17 20:56:22;;;;;;;58.90;23.43;;;;;;;;;;5009612;28;20442;-70
2022/12/17 20:58:53;;;;;;;60.03;25.93;;;;;;;;;;4988381;28;21038;-70
2022/12/17 21:01:23;;;;;;;51.47;21.30;;;;;;;;;;4991297;28;20439;-70
2022/12/17 21:03:50;;;;;;;52.63;22.40;;;;;;;;;;5009204;28;20462;-70
2022/12/17 21:06:21;;;;;;;52.10;21.80;;;;;;;;;;5009000;28;20439;-70
2022/12/17 21:08:48;;;;;;;47.63;21.83;;;;;;;;;;4979205;28;20976;-70
2022/12/17 21:11:25;;;;;;;53.60;22.47;;;;;;;;;;4988867;28;20446;-70
2022/12/17 21:13:53;;;;;;;59.00;22.70;;;;;;;;;;5009488;28;20531;-70
2022/12/17 21:16:25;;;;;;;57.63;23.53;;;;;;;;;;5009912;28;20445;-70
2022/12/17 21:18:53;;;;;;;57.03;22.23;;;;;;;;;;5008889;28;21022;-71
2022/12/17 21:21:23;;;;;;;57.47;22.60;;;;;;;;;;4975233;28;20439;-70
2022/12/17 21:23:51;;;;;;;55.93;22.07;;;;;;;;;;4988077;28;20470;-71
2022/12/17 21:26:18;;;;;;;62.43;22.50;;;;;;;;;;4990916;28;20436;-70
2022/12/17 21:28:46;;;;;;;50.60;22.03;;;;;;;;;;5009846;28;20431;-70
2022/12/17 21:31:23;;;;;;;52.10;19.93;;;;;;;;;;4969665;28;20459;-71
2022/12/17 21:33:50;;;;;;;45.27;20.23;;;;;;;;;;5009634;28;20483;-70
2022/12/17 21:36:18;;;;;;;56.97;19.33;;;;;;;;;;5005786;28;20464;-73
2022/12/17 21:38:47;;;;;;;45.73;18.53;;;;;;;;;;4992699;28;20481;-74
2022/12/17 21:41:16;;;;;;;61.30;21.97;;;;;;;;;;5009585;28;20443;-74
2022/12/17 21:43:44;;;;;;;52.77;20.13;;;;;;;;;;4980326;28;20814;-72
2022/12/17 21:46:11;;;;;;;46.20;18.27;;;;;;;;;;4987069;28;20431;-69
2022/12/17 21:48:39;;;;;;;42.20;17.50;;;;;;;;;;4969522;28;20557;-70
2022/12/17 21:51:08;;;;;;;50.40;19.00;;;;;;;;;;5003733;28;20433;-69
2022/12/17 21:53:37;;;;;;;48.23;18.60;;;;;;;;;;4968705;28;20481;-72
2022/12/17 21:56:04;;;;;;;41.97;17.37;;;;;;;;;;5004099;28;20817;-73
2022/12/17 21:58:32;;;;;;;47.90;19.43;;;;;;;;;;4993767;28;20550;-73
2022/12/17 22:01:12;;;;;;;56.97;20.50;;;;;;;;;;4976747;28;20444;-73
2022/12/17 22:03:45;;;;;;;52.10;20.07;;;;;;;;;;5008468;28;20449;-73
2022/12/17 22:06:14;;;;;;;41.57;17.60;;;;;;;;;;4989025;28;20430;-73
2022/12/17 22:08:45;;;;;;;47.60;18.17;;;;;;;;;;4972624;28;20577;-73
2022/12/17 22:11:13;;;;;;;41.83;17.33;;;;;;;;;;5005676;28;20490;-73
2022/12/17 22:14:08;;;;;;;46.00;17.47;;;;;;;;;;4987722;28;20774;-73
2022/12/17 22:16:47;;;;;;;41.73;17.47;;;;;;;;;;4981182;28;20440;-73
2022/12/17 22:19:21;;;;;;;42.90;17.03;;;;;;;;;;4992416;28;20899;-73
2022/12/17 22:21:48;;;;;;;46.03;18.13;;;;;;;;;;4988882;28;20432;-73
2022/12/17 22:24:16;;;;;;;49.20;19.17;;;;;;;;;;4990384;28;20522;-73
2022/12/17 22:26:42;;;;;;;46.63;17.93;;;;;;;;;;4968830;28;20455;-73
2022/12/17 22:29:09;;;;;;;40.30;16.97;;;;;;;;;;4970809;28;20480;-73
2022/12/17 22:34:42;;;;;;;36.20;16.07;;;;;;;;;;5029151;28;20460;-73
2022/12/17 22:37:28;;;;;;;42.70;18.77;;;;;;;;;;5029163;28;20446;-73
2022/12/17 22:40:13;;;;;;;63.73;24.77;;;;;;;;;;5029268;28;20474;-73
2022/12/17 22:46:04;;;;;;;81.97;31.03;;;;;;;;;;5010231;28;20489;-73
2022/12/17 22:48:32;;;;;;;76.40;30.47;;;;;;;;;;4985495;28;20438;-73
2022/12/17 22:51:06;;;;;;;69.47;28.93;;;;;;;;;;4969089;28;20456;-73
2022/12/17 22:53:37;;;;;;;65.73;26.73;;;;;;;;;;4971715;28;20494;-73
2022/12/17 22:56:06;;;;;;;65.13;27.23;;;;;;;;;;4972840;28;21314;-73
2022/12/17 22:58:52;;;;;;;71.53;26.97;;;;;;;;;;4993446;28;20455;-73
2022/12/17 23:01:19;;;;;;;50.13;20.73;;;;;;;;;;4993474;28;20866;-73
2022/12/17 23:03:48;;;;;;;53.27;21.03;;;;;;;;;;4992916;28;20458;-73
2022/12/17 23:06:15;;;;;;;55.53;23.77;;;;;;;;;;4993191;28;20483;-73
2022/12/17 23:08:42;;;;;;;57.90;22.13;;;;;;;;;;4972852;28;20418;-73
2022/12/17 23:11:10;;;;;;;53.40;22.70;;;;;;;;;;4973241;28;20958;-73
2022/12/17 23:13:38;;;;;;;49.73;21.57;;;;;;;;;;4972087;28;20450;-73
2022/12/17 23:16:07;;;;;;;51.20;21.33;;;;;;;;;;4989756;28;20506;-73
2022/12/17 23:18:35;;;;;;;58.07;20.73;;;;;;;;;;4971676;28;20563;-72
2022/12/17 23:21:08;;;;;;;53.10;20.53;;;;;;;;;;4975486;28;20524;-74
2022/12/17 23:23:35;;;;;;;50.83;20.40;;;;;;;;;;5005533;28;20792;-73
2022/12/17 23:26:07;;;;;;;48.17;19.60;;;;;;;;;;5012376;28;20435;-73
2022/12/17 23:28:57;;;;;;;45.87;18.07;;;;;;;;;;4991354;28;20443;-73
2022/12/17 23:31:24;;;;;;;57.20;20.87;;;;;;;;;;5011820;28;20530;-73
2022/12/17 23:33:51;;;;;;;50.53;19.77;;;;;;;;;;5008997;28;20431;-73
2022/12/17 23:36:19;;;;;;;63.50;21.53;;;;;;;;;;5021068;28;20443;-73
2022/12/17 23:38:46;;;;;;;48.53;19.67;;;;;;;;;;4972237;28;20456;-73
2022/12/17 23:41:20;;;;;;;79.20;26.63;;;;;;;;;;4991261;28;20472;-73
2022/12/17 23:43:46;;;;;;;56.37;22.50;;;;;;;;;;4971852;28;20442;-73
2022/12/17 23:46:13;;;;;;;52.53;20.60;;;;;;;;;;4972919;28;20440;-73
2022/12/17 23:48:41;;;;;;;54.30;21.50;;;;;;;;;;4992726;28;20424;-73
2022/12/17 23:51:12;;;;;;;55.00;20.30;;;;;;;;;;4972613;28;20442;-72
2022/12/17 23:53:39;;;;;;;42.73;18.27;;;;;;;;;;4976818;28;20448;-73
2022/12/17 23:56:06;;;;;;;37.60;14.47;;;;;;;;;;4971884;28;20947;-73
2022/12/17 23:58:34;;;;;;;50.77;17.37;;;;;;;;;;4991214;28;20843;-73
